Aviation Digital Data Service (ADDS)

Output produced by METARs form (0806 UTC 18 November 2018)
found at http://www.aviationweather.gov/metar/data/
 
Forecast for: RJCM (MEMAMBETSU AIRPO, JP)
Text: TAF RJCM 180519Z 1806/1912 20007KT 9999 FEW030 SCT050
Forecast period: 0600 UTC 18 November 2018 to 0900 UTC 19 November 2018
Forecast type: FROM: standard forecast or significant change
Winds: from the SSW (200 degrees) at 8 MPH (7 knots; 3.6 m/s)
Visibility: 6 or more miles 10+ km)
Ceiling: at least 12,000 feet AGL
Clouds: few clouds at 3000 feet AGL
scattered clouds at 5000 feet AGL
Weather: no significant weather forecast for this period
Text: BECMG 1909/1912 34008KT
Forecast period: 0900 to 1200 UTC 19 November 2018
Forecast type: BECOMING: Conditions expected to become as follows by 1200 UTC 19 November 2018
Winds: from the NNW (340 degrees) at 9 MPH (8 knots; 4.1 m/s)
Visibility: 6 or more miles 10+ km)
Ceiling: at least 12,000 feet AGL
Clouds: few clouds at 3000 feet AGL
scattered clouds at 5000 feet AGL
Weather: no significant weather forecast for this period
Text: TEMPO 1909/1912 3000 -SHRA BR FEW003 BKN006
Forecast period: 0900 to 1200 UTC 19 November 2018
Forecast type: TEMPORARY: The following changes expected for less than half the time period
Visibility: 1.86 miles (2.99 km)
Ceiling: 600 feet AGL
Clouds: few clouds at 300 feet AGL
broken clouds at 600 feet AGL
Weather: -SHRA BR  (light rain showers, mist)